createdAt,value
2022-09-14T00:01:21.331Z,20.53
2022-09-14T00:03:45.227Z,20.47
2022-09-14T00:06:14.074Z,20.48
2022-09-14T00:08:40.924Z,20.51
2022-09-14T00:11:11.826Z,20.48
2022-09-14T00:13:40.914Z,20.44
2022-09-14T00:16:12.036Z,20.38
2022-09-14T00:18:38.571Z,20.37
2022-09-14T00:21:07.694Z,20.34
2022-09-14T00:23:36.052Z,20.37
2022-09-14T00:26:08.454Z,20.37
2022-09-14T00:28:47.903Z,20.40
2022-09-14T00:31:15.674Z,20.41
2022-09-14T00:33:43.577Z,20.41
2022-09-14T00:36:12.982Z,20.41
2022-09-14T00:38:40.264Z,20.43
2022-09-14T00:41:11.267Z,20.42
2022-09-14T00:43:58.875Z,20.42
2022-09-14T00:46:27.766Z,20.44
2022-09-14T00:48:56.098Z,20.43
2022-09-14T00:51:22.824Z,20.45
2022-09-14T00:53:49.935Z,20.40
2022-09-14T00:56:16.623Z,20.43
2022-09-14T00:58:45.862Z,20.42
2022-09-14T01:01:12.627Z,20.41
2022-09-14T01:03:39.467Z,20.41
2022-09-14T01:06:27.302Z,20.37
2022-09-14T01:09:12.542Z,20.29
2022-09-14T01:12:12.017Z,20.30
2022-09-14T01:14:49.783Z,20.31
2022-09-14T01:17:41.748Z,20.29
2022-09-14T01:20:11.190Z,20.26
2022-09-14T01:23:13.354Z,20.22
2022-09-14T01:25:55.632Z,20.21
2022-09-14T01:28:32.469Z,20.22
2022-09-14T01:31:03.056Z,20.21
2022-09-14T01:33:35.210Z,20.20
2022-09-14T01:36:06.469Z,19.97
2022-09-14T01:38:40.804Z,20.20
2022-09-14T01:41:11.555Z,20.06
2022-09-14T01:43:54.851Z,20.13
2022-09-14T01:46:26.169Z,20.12
2022-09-14T01:49:05.679Z,20.10
2022-09-14T01:51:42.466Z,20.12
2022-09-14T01:54:18.360Z,20.14
2022-09-14T01:56:51.745Z,20.12
2022-09-14T01:59:23.777Z,20.05
2022-09-14T02:01:57.222Z,20.07
2022-09-14T02:04:38.745Z,20.10
2022-09-14T02:07:05.284Z,20.02
2022-09-14T02:09:31.858Z,20.11
2022-09-14T02:12:00.751Z,20.06
2022-09-14T02:14:27.951Z,20.11
2022-09-14T02:16:57.558Z,20.02
2022-09-14T02:19:26.713Z,20.08
2022-09-14T02:21:53.626Z,20.03
2022-09-14T02:24:20.686Z,19.95
2022-09-14T02:26:51.326Z,19.75
2022-09-14T02:29:18.151Z,20.07
2022-09-14T02:32:04.728Z,20.03
2022-09-14T02:34:39.088Z,20.02
2022-09-14T02:37:27.872Z,19.98
2022-09-14T02:40:05.394Z,19.97
2022-09-14T02:42:39.108Z,19.97
2022-09-14T02:45:19.797Z,19.94
2022-09-14T02:48:02.397Z,19.93
2022-09-14T02:50:36.102Z,19.84
2022-09-14T02:53:27.388Z,19.90
2022-09-14T02:56:03.467Z,19.88
2022-09-14T02:58:42.083Z,19.89
2022-09-14T03:01:11.487Z,19.85
2022-09-14T03:03:38.679Z,19.87
2022-09-14T03:06:05.530Z,19.88
2022-09-14T03:08:32.865Z,19.88
2022-09-14T03:10:59.505Z,19.88
2022-09-14T03:13:25.983Z,19.89
2022-09-14T03:15:52.777Z,19.91
2022-09-14T03:18:19.375Z,19.93
2022-09-14T03:20:45.936Z,19.93
2022-09-14T03:23:13.390Z,19.92
2022-09-14T03:25:43.992Z,19.92
2022-09-14T03:28:12.439Z,19.92
2022-09-14T03:30:39.257Z,19.92
2022-09-14T03:33:05.837Z,19.94
2022-09-14T03:35:32.690Z,19.95
2022-09-14T03:37:59.848Z,19.96
2022-09-14T03:40:27.425Z,19.97
2022-09-14T03:42:54.578Z,20.00
2022-09-14T03:45:21.865Z,19.99
2022-09-14T03:47:48.918Z,19.93
2022-09-14T03:50:16.441Z,19.96
2022-09-14T03:52:43.053Z,19.85
2022-09-14T03:55:10.778Z,19.86
2022-09-14T03:57:37.578Z,19.69
2022-09-14T04:00:05.821Z,19.89
2022-09-14T04:02:37.700Z,19.85
2022-09-14T04:05:04.660Z,19.88
2022-09-14T04:07:31.242Z,19.89
2022-09-14T04:09:58.344Z,19.79
2022-09-14T04:12:25.020Z,19.78
2022-09-14T04:14:51.499Z,19.68
2022-09-14T04:17:18.107Z,19.63
2022-09-14T04:19:44.747Z,19.64
2022-09-14T04:22:11.345Z,19.68
2022-09-14T04:24:37.928Z,19.63
2022-09-14T04:27:04.455Z,19.72
2022-09-14T04:29:30.939Z,19.75
2022-09-14T04:31:58.007Z,19.76
2022-09-14T04:34:25.033Z,19.76
2022-09-14T04:36:54.100Z,19.67
2022-09-14T04:39:20.818Z,19.77
2022-09-14T04:41:47.355Z,19.76
2022-09-14T04:44:14.361Z,19.78
2022-09-14T04:46:46.123Z,19.81
2022-09-14T04:49:14.464Z,19.82
2022-09-14T04:51:41.060Z,19.82
2022-09-14T04:54:07.649Z,19.82
2022-09-14T04:56:35.970Z,19.82
2022-09-14T04:59:04.393Z,19.82
2022-09-14T05:01:37.542Z,19.77
2022-09-14T05:04:05.445Z,19.72
2022-09-14T05:06:34.175Z,19.72
2022-09-14T05:09:02.002Z,19.68
2022-09-14T05:11:31.866Z,19.73
2022-09-14T05:13:59.496Z,19.74
2022-09-14T05:16:29.126Z,19.76
2022-09-14T05:18:58.010Z,19.79
2022-09-14T05:21:24.934Z,19.82
2022-09-14T05:23:59.785Z,19.85
2022-09-14T05:26:28.128Z,19.84
2022-09-14T05:28:56.812Z,19.88
2022-09-14T05:31:24.941Z,19.92
2022-09-14T05:33:52.318Z,19.92
2022-09-14T05:36:19.486Z,19.93
2022-09-14T05:38:46.269Z,19.88
2022-09-14T05:41:14.093Z,19.85
2022-09-14T05:43:41.429Z,19.95
2022-09-14T05:46:11.208Z,19.97
2022-09-14T05:48:39.355Z,20.00
2022-09-14T05:51:11.597Z,20.03
2022-09-14T05:53:38.150Z,20.06
2022-09-14T05:56:07.899Z,20.08
2022-09-14T05:58:35.525Z,20.12
2022-09-14T06:01:09.362Z,20.16
2022-09-14T06:03:36.354Z,20.20
2022-09-14T06:06:03.983Z,20.27
2022-09-14T06:08:30.489Z,20.30
2022-09-14T06:10:57.206Z,20.36
2022-09-14T06:13:23.807Z,20.46
2022-09-14T06:15:50.252Z,20.55
2022-09-14T06:18:16.696Z,20.64
2022-09-14T06:20:51.043Z,20.73
2022-09-14T06:23:18.430Z,20.69
2022-09-14T06:25:44.923Z,20.73
2022-09-14T06:28:11.403Z,20.90
2022-09-14T06:30:37.867Z,20.91
2022-09-14T06:33:05.027Z,20.94
2022-09-14T06:35:31.545Z,20.97
2022-09-14T06:37:58.022Z,20.99
2022-09-14T06:40:24.545Z,21.00
2022-09-14T06:42:51.054Z,21.00
2022-09-14T06:45:17.561Z,21.03
2022-09-14T06:47:44.157Z,21.06
2022-09-14T06:50:10.658Z,21.09
2022-09-14T06:52:37.308Z,21.09
2022-09-14T06:55:04.061Z,21.10
2022-09-14T06:57:30.524Z,21.09
2022-09-14T06:59:57.466Z,21.15
2022-09-14T07:02:24.018Z,21.20
2022-09-14T07:04:50.517Z,21.27
2022-09-14T07:07:16.952Z,21.36
2022-09-14T07:09:43.450Z,21.50
2022-09-14T07:12:11.618Z,21.66
2022-09-14T07:14:38.506Z,21.79
2022-09-14T07:17:05.376Z,21.87
2022-09-14T07:19:31.850Z,22.00
2022-09-14T07:21:58.566Z,22.13
2022-09-14T07:24:25.078Z,22.20
2022-09-14T07:26:51.575Z,22.29
2022-09-14T07:29:20.012Z,22.37
2022-09-14T07:31:52.371Z,22.50
2022-09-14T07:34:19.467Z,22.58
2022-09-14T07:36:46.433Z,22.65
2022-09-14T07:39:15.233Z,22.71
2022-09-14T07:41:43.355Z,22.77
2022-09-14T07:44:14.340Z,22.83
2022-09-14T07:46:42.335Z,22.80
2022-09-14T07:49:10.199Z,22.92
2022-09-14T07:51:37.884Z,22.98
2022-09-14T07:54:06.075Z,23.08
2022-09-14T07:56:34.093Z,23.19
2022-09-14T07:59:23.877Z,23.31
2022-09-14T08:01:47.375Z,23.46
2022-09-14T08:04:13.889Z,23.67
2022-09-14T08:06:40.790Z,23.96
2022-09-14T08:09:11.069Z,24.23
2022-09-14T08:11:38.400Z,24.42
2022-09-14T08:14:10.107Z,24.64
2022-09-14T08:16:38.881Z,24.89
2022-09-14T08:19:08.139Z,25.10
2022-09-14T08:21:35.712Z,25.41
2022-09-14T08:24:04.203Z,25.71
2022-09-14T08:26:31.358Z,26.10
2022-09-14T08:29:00.498Z,26.50
2022-09-14T08:31:28.307Z,26.75
2022-09-14T08:33:58.034Z,26.97
2022-09-14T08:36:27.021Z,27.07
2022-09-14T08:38:53.474Z,27.04
2022-09-14T08:41:33.026Z,27.06
2022-09-14T08:44:13.440Z,27.03
2022-09-14T08:46:47.293Z,26.90
2022-09-14T08:49:24.287Z,26.73
2022-09-14T08:51:51.893Z,26.63
2022-09-14T08:54:18.833Z,26.55
2022-09-14T08:56:49.050Z,26.44
2022-09-14T08:59:56.952Z,26.30
2022-09-14T09:02:48.291Z,26.08
2022-09-14T09:05:40.259Z,25.92
2022-09-14T09:08:39.268Z,25.89
2022-09-14T09:11:10.022Z,25.93
2022-09-14T09:13:40.130Z,25.97
2022-09-14T09:16:10.093Z,26.12
2022-09-14T09:18:46.843Z,26.34
2022-09-14T09:21:20.095Z,26.52
2022-09-14T09:23:46.597Z,26.74
2022-09-14T09:26:25.341Z,27.03
2022-09-14T09:28:55.022Z,27.27
2022-09-14T09:31:29.815Z,27.59
2022-09-14T09:34:17.431Z,27.84
2022-09-14T09:36:48.411Z,28.18
2022-09-14T09:39:16.079Z,28.15
2022-09-14T09:41:48.473Z,28.40
2022-09-14T09:44:15.524Z,28.52
2022-09-14T09:46:50.316Z,28.69
2022-09-14T09:49:21.828Z,28.63
2022-09-14T09:51:49.815Z,28.52
2022-09-14T09:54:16.505Z,28.51
2022-09-14T09:57:00.561Z,28.44
2022-09-14T09:59:31.795Z,28.60
2022-09-14T10:02:20.017Z,28.79
2022-09-14T10:04:56.793Z,28.97
2022-09-14T10:07:23.619Z,29.14
2022-09-14T10:10:08.346Z,29.21
2022-09-14T10:12:37.477Z,29.22
2022-09-14T10:15:11.603Z,29.13
2022-09-14T10:17:38.109Z,28.91
2022-09-14T10:20:05.809Z,28.72
2022-09-14T10:22:34.432Z,28.74
2022-09-14T10:25:13.282Z,28.73
2022-09-14T10:27:39.797Z,28.92
2022-09-14T10:30:13.897Z,29.00
2022-09-14T10:32:44.736Z,29.32
2022-09-14T10:35:13.892Z,29.51
2022-09-14T10:38:24.653Z,29.34
2022-09-14T10:41:10.461Z,29.14
2022-09-14T10:43:55.592Z,29.00
2022-09-14T10:46:34.545Z,29.21
2022-09-14T10:49:22.648Z,29.08
2022-09-14T10:52:03.169Z,29.25
2022-09-14T10:54:58.132Z,29.63
2022-09-14T10:57:30.995Z,29.76
2022-09-14T11:00:07.235Z,29.85
2022-09-14T11:03:00.939Z,29.97
2022-09-14T11:05:40.154Z,29.87
2022-09-14T11:08:22.025Z,29.73
2022-09-14T11:11:16.930Z,29.96
2022-09-14T11:14:08.072Z,30.13
2022-09-14T11:16:59.368Z,30.38
2022-09-14T11:19:44.226Z,30.78
2022-09-14T11:22:34.972Z,30.57
2022-09-14T11:25:12.323Z,30.59
2022-09-14T11:27:47.901Z,30.38
2022-09-14T11:30:18.563Z,30.25
2022-09-14T11:32:59.630Z,30.09
2022-09-14T11:35:38.845Z,30.05
2022-09-14T11:38:18.240Z,30.05
2022-09-14T11:40:52.194Z,30.09
2022-09-14T11:43:27.818Z,30.04
2022-09-14T11:46:13.496Z,29.92
2022-09-14T11:49:05.341Z,29.93
2022-09-14T11:51:39.153Z,30.00
2022-09-14T11:54:18.378Z,29.63
2022-09-14T11:56:49.434Z,29.64
2022-09-14T11:59:50.369Z,29.56
2022-09-14T12:02:22.664Z,29.38
2022-09-14T12:05:07.419Z,29.30
2022-09-14T12:07:39.899Z,29.29
2022-09-14T12:10:18.110Z,29.10
2022-09-14T12:12:48.240Z,29.04
2022-09-14T12:15:31.568Z,28.91
2022-09-14T12:17:57.932Z,28.69
2022-09-14T12:20:30.394Z,28.71
2022-09-14T12:23:24.926Z,28.62
2022-09-14T12:26:06.709Z,28.54
2022-09-14T12:28:36.226Z,28.50
2022-09-14T12:31:02.992Z,28.36
2022-09-14T12:33:32.440Z,28.30
2022-09-14T12:36:11.061Z,28.19
2022-09-14T12:38:39.412Z,28.09
2022-09-14T12:41:15.088Z,28.03
2022-09-14T12:43:41.501Z,27.88
2022-09-14T12:46:08.031Z,27.84
2022-09-14T12:48:50.807Z,27.85
2022-09-14T12:51:29.668Z,27.87
2022-09-14T12:54:08.466Z,27.83
2022-09-14T12:56:42.396Z,27.74
2022-09-14T12:59:32.347Z,27.68
2022-09-14T13:02:36.603Z,27.57
2022-09-14T13:05:08.163Z,27.48
2022-09-14T13:07:36.624Z,27.53
2022-09-14T13:10:06.490Z,27.56
2022-09-14T13:12:44.904Z,27.55
2022-09-14T13:15:18.938Z,27.57
2022-09-14T13:18:03.085Z,27.60
2022-09-14T13:20:31.599Z,27.63
2022-09-14T13:22:58.483Z,27.71
2022-09-14T13:25:28.584Z,27.83
2022-09-14T13:27:56.176Z,27.91
2022-09-14T13:30:25.640Z,28.10
2022-09-14T13:32:55.513Z,28.08
2022-09-14T13:35:43.567Z,28.05
2022-09-14T13:38:16.554Z,28.02
2022-09-14T13:40:43.208Z,27.96
2022-09-14T13:43:10.200Z,27.96
2022-09-14T13:45:37.133Z,27.99
2022-09-14T13:48:05.751Z,28.02
2022-09-14T13:50:33.913Z,28.00
2022-09-14T13:53:03.296Z,28.01
2022-09-14T13:55:33.240Z,28.03
2022-09-14T13:58:13.473Z,28.03
2022-09-14T14:00:59.657Z,28.00
2022-09-14T14:03:32.018Z,27.94
2022-09-14T14:05:59.882Z,27.84
2022-09-14T14:08:35.092Z,27.46
2022-09-14T14:11:07.634Z,26.81
2022-09-14T14:13:37.258Z,26.19
2022-09-14T14:16:21.484Z,25.48
2022-09-14T14:18:56.396Z,25.22
2022-09-14T14:21:23.044Z,24.97
2022-09-14T14:24:12.150Z,24.76
2022-09-14T14:26:38.597Z,24.51
2022-09-14T14:29:12.403Z,24.31
2022-09-14T14:31:38.912Z,24.12
2022-09-14T14:34:17.199Z,23.99
2022-09-14T14:36:43.868Z,23.47
2022-09-14T14:39:10.546Z,23.14
2022-09-14T14:41:37.562Z,22.83
2022-09-14T14:44:04.159Z,22.64
2022-09-14T14:46:30.758Z,22.51
2022-09-14T14:48:57.309Z,22.42
2022-09-14T14:51:23.768Z,22.38
2022-09-14T14:53:50.288Z,22.32
2022-09-14T14:56:16.762Z,22.29
2022-09-14T14:58:45.595Z,22.25
2022-09-14T15:01:12.877Z,22.27
2022-09-14T15:03:39.625Z,22.27
2022-09-14T15:06:15.666Z,22.30
2022-09-14T15:08:42.698Z,22.30
2022-09-14T15:11:18.515Z,22.29
2022-09-14T15:13:45.975Z,22.28
2022-09-14T15:16:14.149Z,22.24
2022-09-14T15:18:41.195Z,22.22
2022-09-14T15:21:08.581Z,22.23
2022-09-14T15:23:38.042Z,22.22
2022-09-14T15:26:04.679Z,22.20
2022-09-14T15:28:31.164Z,22.24
2022-09-14T15:30:58.290Z,22.24
2022-09-14T15:33:24.985Z,22.24
2022-09-14T15:35:56.051Z,22.19
2022-09-14T15:38:22.845Z,22.15
2022-09-14T15:40:49.328Z,22.12
2022-09-14T15:43:16.185Z,22.06
2022-09-14T15:45:42.973Z,22.04
2022-09-14T15:48:14.692Z,22.00
2022-09-14T15:50:44.880Z,22.02
2022-09-14T15:53:13.102Z,22.04
2022-09-14T15:55:41.947Z,22.04
2022-09-14T15:58:08.893Z,21.95
2022-09-14T16:00:36.567Z,22.04
2022-09-14T16:03:03.975Z,22.07
2022-09-14T16:05:31.266Z,22.08
2022-09-14T16:07:58.019Z,22.02
2022-09-14T16:10:25.692Z,22.16
2022-09-14T16:12:54.085Z,22.25
2022-09-14T16:15:20.709Z,22.27
2022-09-14T16:17:52.567Z,22.29
2022-09-14T16:20:22.335Z,22.35
2022-09-14T16:22:49.785Z,22.33
2022-09-14T16:25:16.537Z,22.37
2022-09-14T16:27:43.092Z,22.39
2022-09-14T16:30:10.314Z,22.38
2022-09-14T16:32:38.615Z,22.38
2022-09-14T16:35:08.111Z,22.37
2022-09-14T16:37:35.270Z,22.31
2022-09-14T16:40:03.162Z,22.30
2022-09-14T16:42:29.668Z,22.24
2022-09-14T16:44:56.204Z,22.20
2022-09-14T16:47:23.046Z,22.12
2022-09-14T16:49:49.587Z,22.07
2022-09-14T16:52:16.339Z,21.99
2022-09-14T16:54:43.572Z,21.95
2022-09-14T16:57:10.154Z,21.91
2022-09-14T16:59:36.787Z,21.85
2022-09-14T17:02:03.349Z,21.80
2022-09-14T17:04:30.066Z,21.69
2022-09-14T17:06:56.880Z,21.69
2022-09-14T17:09:29.107Z,21.62
2022-09-14T17:11:57.551Z,21.55
2022-09-14T17:14:31.092Z,21.50
2022-09-14T17:16:58.196Z,21.47
2022-09-14T17:19:25.179Z,21.45
2022-09-14T17:21:51.824Z,21.43
2022-09-14T17:24:20.125Z,21.39
2022-09-14T17:26:47.356Z,21.27
2022-09-14T17:29:13.881Z,21.34
2022-09-14T17:31:42.190Z,21.29
2022-09-14T17:34:11.449Z,21.24
2022-09-14T17:36:38.409Z,21.22
2022-09-14T17:39:11.373Z,21.17
2022-09-14T17:41:40.085Z,21.16
2022-09-14T17:44:07.816Z,21.11
2022-09-14T17:46:35.363Z,21.09
2022-09-14T17:49:07.957Z,21.06
2022-09-14T17:51:36.358Z,21.00
2022-09-14T17:54:03.345Z,21.01
2022-09-14T17:56:30.273Z,20.97
2022-09-14T17:58:59.924Z,20.97
2022-09-14T18:01:26.464Z,20.94
2022-09-14T18:03:59.090Z,21.03
2022-09-14T18:06:29.148Z,21.02
2022-09-14T18:08:58.140Z,20.98
2022-09-14T18:11:24.877Z,20.92
2022-09-14T18:13:51.615Z,20.88
2022-09-14T18:16:21.189Z,20.82
2022-09-14T18:18:48.983Z,20.65
2022-09-14T18:21:18.463Z,20.74
2022-09-14T18:23:49.859Z,20.70
2022-09-14T18:26:16.894Z,20.68
2022-09-14T18:28:44.770Z,20.62
2022-09-14T18:31:16.810Z,20.62
2022-09-14T18:33:48.399Z,20.61
2022-09-14T18:36:15.247Z,20.61
2022-09-14T18:38:42.783Z,20.60
2022-09-14T18:41:10.785Z,20.59
2022-09-14T18:43:37.659Z,20.47
2022-09-14T18:46:07.867Z,20.53
2022-09-14T18:48:35.092Z,20.48
2022-09-14T18:51:05.095Z,20.46
2022-09-14T18:53:32.440Z,20.44
2022-09-14T18:56:03.159Z,20.43
2022-09-14T18:58:33.177Z,20.37
2022-09-14T19:00:59.782Z,20.07
2022-09-14T19:03:26.320Z,20.27
2022-09-14T19:05:52.889Z,20.24
2022-09-14T19:08:19.373Z,20.24
2022-09-14T19:10:45.838Z,20.19
2022-09-14T19:13:12.471Z,20.12
2022-09-14T19:15:40.921Z,20.19
2022-09-14T19:18:08.657Z,20.19
2022-09-14T19:21:04.866Z,20.16
2022-09-14T19:23:25.871Z,20.11
2022-09-14T19:25:52.335Z,20.08
2022-09-14T19:28:18.840Z,20.10
2022-09-14T19:30:45.450Z,20.10
2022-09-14T19:33:12.067Z,20.12
2022-09-14T19:35:38.529Z,20.10
2022-09-14T19:38:04.987Z,20.06
2022-09-14T19:40:31.572Z,20.06
2022-09-14T19:42:58.564Z,19.99
2022-09-14T19:45:25.055Z,19.99
2022-09-14T19:47:51.505Z,19.97
2022-09-14T19:50:17.993Z,19.97
2022-09-14T19:52:44.562Z,19.96
2022-09-14T19:55:11.040Z,19.90
2022-09-14T19:57:37.586Z,19.89
2022-09-14T20:00:08.179Z,19.89
2022-09-14T20:02:34.938Z,19.55
2022-09-14T20:05:01.616Z,19.82
2022-09-14T20:07:28.253Z,19.80
2022-09-14T20:09:54.988Z,19.79
2022-09-14T20:12:21.477Z,19.77
2022-09-14T20:14:47.962Z,19.77
2022-09-14T20:17:14.523Z,19.75
2022-09-14T20:19:42.114Z,19.73
2022-09-14T20:22:08.587Z,19.70
2022-09-14T20:24:35.839Z,19.65
2022-09-14T20:27:02.363Z,19.63
2022-09-14T20:29:31.509Z,19.63
2022-09-14T20:31:58.776Z,19.62
2022-09-14T20:34:25.631Z,19.62
2022-09-14T20:36:53.226Z,19.58
2022-09-14T20:39:21.033Z,19.55
2022-09-14T20:41:48.254Z,19.51
2022-09-14T20:44:15.822Z,19.39
2022-09-14T20:46:44.441Z,19.45
2022-09-14T20:49:13.209Z,19.42
2022-09-14T20:51:41.093Z,19.40
2022-09-14T20:54:09.750Z,19.38
2022-09-14T20:56:36.644Z,19.36
2022-09-14T20:59:06.071Z,19.34
2022-09-14T21:01:36.569Z,19.37
2022-09-14T21:04:15.506Z,19.37
2022-09-14T21:06:47.184Z,19.39
2022-09-14T21:09:15.590Z,19.33
2022-09-14T21:11:45.618Z,19.39
2022-09-14T21:14:14.095Z,19.40
2022-09-14T21:16:43.575Z,19.42
2022-09-14T21:19:12.920Z,19.31
2022-09-14T21:21:40.015Z,19.38
2022-09-14T21:24:08.893Z,19.46
2022-09-14T21:26:38.231Z,19.47
2022-09-14T21:29:09.091Z,19.46
2022-09-14T21:31:38.124Z,19.47
2022-09-14T21:34:06.591Z,19.50
2022-09-14T21:36:42.210Z,19.54
2022-09-14T21:39:12.597Z,19.57
2022-09-14T21:41:40.373Z,19.56
2022-09-14T21:44:08.057Z,19.57
2022-09-14T21:46:34.785Z,19.58
2022-09-14T21:49:01.349Z,19.58
2022-09-14T21:51:36.469Z,19.55
2022-09-14T21:54:09.124Z,19.56
2022-09-14T21:56:38.080Z,19.52
2022-09-14T21:59:07.885Z,19.58
2022-09-14T22:01:34.516Z,19.53
2022-09-14T22:04:02.222Z,19.59
2022-09-14T22:06:30.645Z,19.60
2022-09-14T22:09:01.084Z,19.58
2022-09-14T22:11:32.829Z,19.29
2022-09-14T22:14:05.030Z,19.50
2022-09-14T22:16:33.933Z,19.54
2022-09-14T22:19:04.074Z,19.55
2022-09-14T22:21:33.339Z,19.55
2022-09-14T22:24:02.287Z,19.55
2022-09-14T22:26:31.387Z,19.53
2022-09-14T22:28:58.933Z,19.56
2022-09-14T22:31:27.395Z,19.57
2022-09-14T22:33:55.347Z,19.55
2022-09-14T22:36:22.879Z,19.56
2022-09-14T22:38:49.851Z,19.56
2022-09-14T22:41:18.530Z,19.52
2022-09-14T22:43:45.793Z,19.50
2022-09-14T22:46:13.053Z,19.46
2022-09-14T22:48:40.238Z,19.30
2022-09-14T22:51:08.839Z,19.38
2022-09-14T22:53:35.429Z,19.35
2022-09-14T22:56:10.083Z,19.36
2022-09-14T22:58:37.136Z,19.36
2022-09-14T23:01:09.020Z,19.39
2022-09-14T23:03:35.837Z,19.36
2022-09-14T23:06:03.385Z,19.43
2022-09-14T23:08:30.393Z,19.43
2022-09-14T23:10:57.257Z,19.47
2022-09-14T23:13:23.917Z,19.50
2022-09-14T23:15:50.483Z,19.53
2022-09-14T23:18:17.067Z,19.46
2022-09-14T23:20:45.056Z,19.51
2022-09-14T23:23:12.304Z,19.53
2022-09-14T23:25:40.722Z,19.56
2022-09-14T23:28:10.154Z,19.54
2022-09-14T23:30:36.713Z,19.51
2022-09-14T23:33:03.286Z,19.52
2022-09-14T23:35:30.050Z,19.54
2022-09-14T23:37:56.918Z,19.53
2022-09-14T23:40:23.970Z,19.53
2022-09-14T23:42:50.614Z,19.51
2022-09-14T23:45:17.931Z,19.52
2022-09-14T23:47:46.002Z,19.52
2022-09-14T23:50:12.496Z,19.54
2022-09-14T23:52:39.187Z,19.53
2022-09-14T23:55:06.249Z,19.51
2022-09-14T23:57:32.717Z,19.50
2022-09-14T23:59:59.279Z,19.51
